Ana Sayfa
METAR-TAF:

METAR-TAF

Havaalanları :

Sir Seretse Khama Uluslararası Havalimanı

Gaborone, Botsvana

Enlem: 24-13S, Boylam: 025-55E, yükseklik: 1005 m

Güncel hava durumu gözlemi

Rapor saat 14:00 UTC de 36 dakika önce yapıldı.
Rüzgar güney/güneydoğudan 7 kt, doğu/güneydoğu ve güney arasında değişken
Sıcaklık 30°C
Nem 21%
Basınç 1015 hPa
Görüş mesafesi 10 km veya daha fazla
3000 ft yükseklikte az bulutlu

METAR: FBSK 151400Z 16007KT 120V190 9999 FEW030 30/05 Q1015 NOSIG

Saat: 16:36 (14:36 UTC)

Tahmin

Rapor saat 13:00 UTC de 1 saat ve 36 dakika önce yapıldı.
Ayın 15'si saat 12 UTC'den ayın 16'si saat 18 UTC'ye kadar geçerli Tahmin
Rüzgar doğu/kuzeydoğudan 5 kt
Görüş mesafesi 10 km veya daha fazla
1500 m altında bulut yok ve kümülonimbus yok

TAF: FBSK 151300Z 1512/1618 06005KT CAVOK

4.000'den fazla havaalanı için hava durumu gözlemleri ve tahminleri (METAR ve TAF raporları).

Kullanılabilir istasyonlar harita üzerinde sarı ve kırmızı noktalarla gösterilir.

İstasyonun adını görmek için fareyi noktanın üzerinde gezdirin.

Sonrasında hava gözlem ve tahminlerini görmek için tıklayın.

Haritayı değiştirmek için: yaklaştırmak için siyah artı işaretli yeşil düğmeye ve uzaklaştırmak için de eksi işaretli düğmeye hızla tıklayın; bitişik haritalar için yeşil okları kullanın.


METAR-TAF: